Time;durP1;ratioP1;P1;durP2;ratioP2;P2;SDS_P1;SDS_P2;PMS_P1;PMS_P2;Temp;Humidity;BMP_temperature;BMP_pressure;BME280_temperature;BME280_humidity;BME280_pressure;Samples;Min_cycle;Max_cycle;Signal;HPM_P1;HPM_P2
2023/12/10 00:00:07;;;;;;;830.72;758.33;;;8.10;99.90;;;;;;5070345;28;20052;-83
2023/12/10 00:02:36;;;;;;;918.50;831.17;;;8.10;99.90;;;;;;5074058;28;20037;-83
2023/12/10 00:05:02;;;;;;;874.03;794.92;;;8.10;99.90;;;;;;5072003;28;20117;-84
2023/12/10 00:07:28;;;;;;;877.15;798.72;;;8.20;99.90;;;;;;5072987;28;20067;-83
2023/12/10 00:09:54;;;;;;;872.92;793.35;;;7.90;99.90;;;;;;5070244;28;20040;-83
2023/12/10 00:12:19;;;;;;;902.03;815.90;;;7.90;99.90;;;;;;5077332;28;20044;-83
2023/12/10 00:14:49;;;;;;;831.08;756.38;;;7.80;99.90;;;;;;5054333;28;20513;-83
2023/12/10 00:17:15;;;;;;;826.78;754.72;;;7.90;99.90;;;;;;5059201;28;20048;-84
2023/12/10 00:19:41;;;;;;;832.40;760.05;;;7.90;99.90;;;;;;5045491;28;20103;-83
2023/12/10 00:22:07;;;;;;;818.00;745.00;;;7.80;99.90;;;;;;5052585;28;20041;-83
2023/12/10 00:24:32;;;;;;;779.10;713.67;;;7.60;99.90;;;;;;5063989;28;20041;-83
2023/12/10 00:26:58;;;;;;;760.72;697.22;;;8.00;99.90;;;;;;5059901;28;20032;-83
2023/12/10 00:29:24;;;;;;;878.45;798.03;;;7.50;99.90;;;;;;5074262;28;20029;-82
2023/12/10 00:31:50;;;;;;;793.72;726.72;;;8.00;99.90;;;;;;5093294;28;20040;-83
2023/12/10 00:34:16;;;;;;;874.70;796.13;;;7.90;99.90;;;;;;5060617;28;20064;-83
2023/12/10 00:36:42;;;;;;;809.80;739.30;;;7.90;99.90;;;;;;5056469;28;20032;-83
2023/12/10 00:39:09;;;;;;;853.83;778.78;;;8.00;99.90;;;;;;5058523;28;20051;-83
2023/12/10 00:41:35;;;;;;;820.17;746.08;;;8.00;99.90;;;;;;5072462;28;20554;-83
2023/12/10 00:44:03;;;;;;;904.33;817.83;;;8.00;99.90;;;;;;5076562;28;20044;-83
2023/12/10 00:46:29;;;;;;;831.92;761.20;;;8.00;99.90;;;;;;5051402;28;20044;-84
2023/12/10 00:48:55;;;;;;;856.00;781.30;;;8.00;99.90;;;;;;5076140;28;20041;-83
2023/12/10 00:51:22;;;;;;;780.28;714.30;;;8.00;99.90;;;;;;5076257;28;20062;-83
2023/12/10 00:53:48;;;;;;;817.03;747.75;;;8.00;99.90;;;;;;5051715;28;20112;-83
2023/12/10 00:56:14;;;;;;;809.08;740.08;;;8.00;99.90;;;;;;5056092;28;20037;-83
2023/12/10 00:58:40;;;;;;;809.47;739.70;;;8.00;99.90;;;;;;5039534;28;20067;-82
2023/12/10 01:01:07;;;;;;;803.10;736.83;;;8.00;99.90;;;;;;5058751;28;20041;-82
2023/12/10 01:03:34;;;;;;;842.22;768.45;;;8.00;99.90;;;;;;5054406;28;20059;-83
2023/12/10 01:06:00;;;;;;;822.50;753.17;;;8.10;99.90;;;;;;5055452;28;20060;-83
2023/12/10 01:08:26;;;;;;;821.90;752.55;;;8.00;99.90;;;;;;5056552;28;20044;-83
2023/12/10 01:10:52;;;;;;;851.80;776.95;;;8.00;99.90;;;;;;5043287;28;20052;-83
2023/12/10 01:13:21;;;;;;;806.90;736.10;;;8.00;99.90;;;;;;5059968;28;20095;-83
2023/12/10 01:15:46;;;;;;;760.58;696.08;;;8.00;99.90;;;;;;5078604;28;20067;-82
2023/12/10 01:18:12;;;;;;;745.38;685.22;;;8.00;99.90;;;;;;5049577;28;20065;-83
2023/12/10 01:20:38;;;;;;;918.58;825.58;;;7.90;99.90;;;;;;5058409;28;20409;-83
2023/12/10 01:23:04;;;;;;;732.35;671.88;;;7.10;99.90;;;;;;5055127;28;20044;-83
2023/12/10 01:25:30;;;;;;;836.85;757.67;;;7.90;99.90;;;;;;5057531;28;20041;-82
2023/12/10 01:27:56;;;;;;;805.08;732.80;;;7.90;99.90;;;;;;5075776;28;20280;-82
2023/12/10 01:30:23;;;;;;;756.88;691.22;;;7.80;99.90;;;;;;5074630;28;20174;-83
2023/12/10 01:32:59;;;;;;;875.08;791.45;;;7.80;99.90;;;;;;5073169;28;20129;-83
2023/12/10 01:35:26;;;;;;;785.90;717.50;;;7.80;99.90;;;;;;5056640;28;20055;-82
2023/12/10 01:37:53;;;;;;;839.50;760.53;;;7.80;99.90;;;;;;5056921;28;20036;-82
2023/12/10 01:40:19;;;;;;;874.28;789.65;;;7.70;99.90;;;;;;5060178;28;20067;-82
2023/12/10 01:42:45;;;;;;;775.42;707.30;;;7.70;99.90;;;;;;5090328;28;20032;-82
2023/12/10 01:45:11;;;;;;;1048.72;896.40;;;7.70;99.90;;;;;;5061014;28;20037;-82
2023/12/10 01:47:45;;;;;;;827.78;751.42;;;7.70;99.90;;;;;;5059956;28;20036;-82
2023/12/10 01:50:12;;;;;;;891.60;802.97;;;7.70;99.90;;;;;;5064078;28;20044;-82
2023/12/10 01:52:42;;;;;;;897.13;807.83;;;7.70;99.90;;;;;;5052455;28;20037;-82
2023/12/10 01:55:09;;;;;;;918.17;824.38;;;7.70;99.90;;;;;;5057962;28;20040;-83
2023/12/10 01:57:38;;;;;;;877.97;791.92;;;7.30;99.90;;;;;;5060488;28;20033;-83
2023/12/10 02:00:06;;;;;;;961.92;854.67;;;7.60;99.90;;;;;;5060237;28;20052;-82
2023/12/10 02:02:36;;;;;;;927.30;830.55;;;7.70;99.90;;;;;;5059355;28;20037;-82
2023/12/10 02:05:07;;;;;;;907.55;815.92;;;7.70;99.90;;;;;;5058685;28;20040;-82
2023/12/10 02:07:34;;;;;;;962.55;850.97;;;7.70;99.90;;;;;;5060990;28;20114;-82
2023/12/10 02:10:01;;;;;;;971.67;866.58;;;7.00;99.90;;;;;;5057390;28;20303;-82
2023/12/10 02:12:27;;;;;;;913.22;820.88;;;7.20;99.90;;;;;;5060108;28;20056;-82
2023/12/10 02:14:56;;;;;;;904.17;816.10;;;7.60;99.90;;;;;;5069593;28;20041;-82
2023/12/10 02:17:22;;;;;;;945.90;844.40;;;7.60;99.90;;;;;;5046878;28;20029;-82
2023/12/10 02:19:50;;;;;;;930.35;832.63;;;7.60;99.90;;;;;;5056279;28;20079;-82
2023/12/10 02:22:21;;;;;;;936.13;836.55;;;7.60;99.90;;;;;;5049538;28;20036;-83
2023/12/10 02:25:01;;;;;;;1014.30;889.90;;;6.90;99.90;;;;;;5076616;28;20041;-82
2023/12/10 02:27:27;;;;;;;917.83;823.80;;;7.60;99.90;;;;;;5055820;28;20068;-83
2023/12/10 02:29:54;;;;;;;998.58;880.47;;;8.10;99.90;;;;;;5093285;28;20059;-82
2023/12/10 02:32:20;;;;;;;890.22;803.17;;;6.80;99.90;;;;;;5061460;28;20044;-83
2023/12/10 02:34:46;;;;;;;953.92;851.90;;;7.50;99.90;;;;;;5057607;28;20037;-83
2023/12/10 02:37:12;;;;;;;922.72;828.97;;;7.60;99.90;;;;;;5097891;28;20049;-83
2023/12/10 02:39:38;;;;;;;911.63;821.45;;;7.00;99.90;;;;;;5072009;28;20064;-82
2023/12/10 02:42:04;;;;;;;998.22;881.20;;;7.60;99.90;;;;;;5058974;28;20040;-83
2023/12/10 02:44:30;;;;;;;880.38;796.10;;;7.60;99.90;;;;;;5078085;28;20029;-83
2023/12/10 02:46:56;;;;;;;1195.38;951.42;;;7.60;99.90;;;;;;5053156;28;20033;-83
2023/12/10 02:49:22;;;;;;;905.92;815.38;;;7.60;99.90;;;;;;5061828;28;20037;-83
2023/12/10 02:51:48;;;;;;;950.75;853.17;;;7.60;99.90;;;;;;5053113;28;20068;-84
2023/12/10 02:54:13;;;;;;;929.92;831.92;;;7.60;99.90;;;;;;5078077;28;20044;-83
2023/12/10 02:56:39;;;;;;;926.28;834.55;;;7.60;99.90;;;;;;5057010;28;20119;-82
2023/12/10 02:59:05;;;;;;;955.58;852.50;;;7.70;99.90;;;;;;5069518;28;20068;-82
2023/12/10 03:01:31;;;;;;;974.25;870.72;;;7.60;99.90;;;;;;5077015;28;20095;-82
2023/12/10 03:03:56;;;;;;;958.70;856.95;;;7.60;99.90;;;;;;5069271;28;20550;-83
2023/12/10 03:06:25;;;;;;;1010.08;880.20;;;7.60;99.90;;;;;;5058332;28;20056;-83
2023/12/10 03:08:51;;;;;;;1034.10;896.38;;;7.70;99.90;;;;;;5059073;28;20028;-83
2023/12/10 03:11:17;;;;;;;1002.20;882.90;;;7.70;99.90;;;;;;5042924;28;20060;-82
2023/12/10 03:13:42;;;;;;;862.17;781.80;;;7.70;99.90;;;;;;5062395;28;20047;-82
2023/12/10 03:16:09;;;;;;;878.85;793.85;;;7.70;99.90;;;;;;5066666;28;20100;-82
2023/12/10 03:18:35;;;;;;;908.33;817.40;;;7.60;99.90;;;;;;5073357;28;20053;-82
2023/12/10 03:21:04;;;;;;;951.15;852.75;;;7.70;99.90;;;;;;5048733;28;20098;-83
2023/12/10 03:23:30;;;;;;;918.05;825.63;;;7.60;99.90;;;;;;5062489;28;20044;-82
2023/12/10 03:25:56;;;;;;;1019.17;898.53;;;7.60;99.90;;;;;;5058182;28;20032;-82
2023/12/10 03:28:22;;;;;;;912.45;821.47;;;8.20;99.90;;;;;;5053839;28;20635;-83
2023/12/10 03:30:47;;;;;;;936.35;839.72;;;7.60;99.90;;;;;;5074047;28;20357;-83
2023/12/10 03:33:13;;;;;;;980.90;876.03;;;7.60;99.90;;;;;;5060173;28;20083;-82
2023/12/10 03:35:40;;;;;;;949.38;848.60;;;7.30;99.90;;;;;;5072336;28;20029;-83
2023/12/10 03:38:06;;;;;;;960.38;860.85;;;7.60;99.90;;;;;;5059463;28;20039;-82
2023/12/10 03:40:32;;;;;;;984.50;877.78;;;7.60;99.90;;;;;;5061658;28;20064;-83
2023/12/10 03:42:58;;;;;;;919.55;828.42;;;7.60;99.90;;;;;;5056132;28;20061;-82
2023/12/10 03:45:24;;;;;;;942.72;847.53;;;7.60;99.90;;;;;;5055994;28;20036;-83
2023/12/10 03:47:49;;;;;;;976.30;872.10;;;7.60;99.90;;;;;;5068887;28;20037;-82
2023/12/10 03:50:16;;;;;;;935.92;842.15;;;7.60;99.90;;;;;;5055152;28;20112;-83
2023/12/10 03:52:41;;;;;;;909.90;820.72;;;7.60;99.90;;;;;;5055584;28;20469;-82
2023/12/10 03:55:08;;;;;;;921.42;828.17;;;7.70;99.90;;;;;;5075546;28;20040;-82
2023/12/10 03:57:34;;;;;;;977.45;876.20;;;7.70;99.90;;;;;;5055983;28;20339;-82
2023/12/10 04:00:01;;;;;;;931.22;838.97;;;7.70;99.90;;;;;;5078794;28;20036;-82
2023/12/10 04:02:27;;;;;;;937.30;848.05;;;7.60;99.90;;;;;;5070887;28;20032;-83
2023/12/10 04:04:52;;;;;;;944.25;849.03;;;7.60;99.90;;;;;;5089864;28;20108;-82
2023/12/10 04:07:19;;;;;;;945.38;846.42;;;7.60;99.90;;;;;;5055126;28;20033;-83
2023/12/10 04:09:45;;;;;;;985.95;880.17;;;7.60;99.90;;;;;;5085495;28;20036;-83
2023/12/10 04:12:11;;;;;;;900.22;813.03;;;7.60;99.90;;;;;;5072963;28;20059;-84
2023/12/10 04:14:37;;;;;;;919.67;829.80;;;7.70;99.90;;;;;;5058241;28;20048;-83
2023/12/10 04:17:05;;;;;;;990.30;885.63;;;7.60;99.90;;;;;;5057917;28;20211;-84
2023/12/10 04:19:31;;;;;;;1017.60;897.53;;;7.60;99.90;;;;;;5049924;28;20080;-85
2023/12/10 04:22:00;;;;;;;958.63;860.08;;;7.70;99.90;;;;;;5063024;28;20062;-83
2023/12/10 04:24:26;;;;;;;969.53;868.40;;;7.70;99.90;;;;;;5060861;28;20070;-84
2023/12/10 04:26:51;;;;;;;1005.15;893.25;;;7.70;99.90;;;;;;5059752;28;20489;-83
2023/12/10 04:29:17;;;;;;;1258.15;972.00;;;7.70;99.90;;;;;;5077484;28;20091;-83
2023/12/10 04:31:43;;;;;;;951.05;855.47;;;7.70;99.90;;;;;;5079013;28;20052;-84
2023/12/10 04:34:09;;;;;;;925.42;838.95;;;7.70;99.90;;;;;;5058900;28;20062;-84
2023/12/10 04:36:35;;;;;;;1236.20;969.92;;;7.20;99.90;;;;;;5058514;28;20033;-84
2023/12/10 04:39:04;;;;;;;993.47;890.33;;;7.70;99.90;;;;;;5074078;28;20048;-84
2023/12/10 04:41:30;;;;;;;999.60;893.20;;;7.70;99.90;;;;;;5064648;28;20037;-84
2023/12/10 04:43:55;;;;;;;1009.08;900.55;;;7.00;99.90;;;;;;5077741;28;20071;-84
2023/12/10 04:46:21;;;;;;;1089.38;939.38;;;7.70;99.90;;;;;;5049743;28;20103;-84
2023/12/10 04:48:47;;;;;;;1087.05;936.75;;;7.70;99.90;;;;;;5076622;28;20455;-84
2023/12/10 04:51:13;;;;;;;1082.65;937.72;;;7.10;99.90;;;;;;5037574;28;20056;-84
2023/12/10 04:53:39;;;;;;;1057.93;932.85;;;7.80;99.90;;;;;;5070104;28;20044;-84
2023/12/10 04:56:05;;;;;;;996.17;893.70;;;7.80;99.90;;;;;;5078593;28;20037;-84
2023/12/10 04:58:31;;;;;;;1040.95;922.95;;;7.80;99.90;;;;;;5052864;28;20056;-84
2023/12/10 05:00:57;;;;;;;991.63;888.88;;;7.80;99.90;;;;;;5078365;28;20033;-85
2023/12/10 05:03:23;;;;;;;1052.70;924.58;;;7.80;99.90;;;;;;5068833;28;20041;-84
2023/12/10 05:05:48;;;;;;;993.30;889.95;;;7.90;99.90;;;;;;5082939;28;20045;-84
2023/12/10 05:08:14;;;;;;;972.70;875.70;;;7.90;99.90;;;;;;5065373;28;20028;-85
2023/12/10 05:10:40;;;;;;;1089.10;935.58;;;7.80;99.90;;;;;;5095357;28;20073;-84
2023/12/10 05:13:08;;;;;;;955.90;860.75;;;7.90;99.90;;;;;;5072902;28;20104;-84
2023/12/10 05:15:34;;;;;;;958.58;864.72;;;7.90;99.90;;;;;;5057979;28;20045;-84
2023/12/10 05:18:03;;;;;;;1014.83;908.20;;;8.00;99.90;;;;;;5064476;28;20056;-84
2023/12/10 05:20:30;;;;;;;1162.78;931.53;;;8.00;99.90;;;;;;5073589;28;21190;-84
2023/12/10 05:23:00;;;;;;;1100.30;939.35;;;8.00;99.90;;;;;;5059287;28;20039;-85
2023/12/10 05:25:30;;;;;;;971.33;874.83;;;8.00;99.90;;;;;;5078153;28;20043;-86
2023/12/10 05:27:57;;;;;;;976.15;878.90;;;7.70;99.90;;;;;;5077261;28;20512;-84
2023/12/10 05:30:25;;;;;;;986.30;885.17;;;8.00;99.90;;;;;;5080077;28;20071;-84
2023/12/10 05:32:51;;;;;;;1018.97;911.60;;;8.00;99.90;;;;;;5063040;28;20070;-84
2023/12/10 05:35:17;;;;;;;1112.25;945.88;;;8.10;99.90;;;;;;5066013;28;20047;-84
2023/12/10 05:37:42;;;;;;;1031.63;916.90;;;8.10;99.90;;;;;;5059004;28;20407;-84
2023/12/10 05:40:09;;;;;;;1268.90;969.47;;;8.10;99.90;;;;;;5060247;28;20060;-84
2023/12/10 05:42:35;;;;;;;1020.60;909.72;;;8.20;99.90;;;;;;5051602;28;20055;-84
2023/12/10 05:45:02;;;;;;;1444.88;985.00;;;8.20;99.90;;;;;;5092475;28;20124;-85
2023/12/10 05:47:27;;;;;;;1017.40;904.13;;;8.10;99.90;;;;;;5062110;28;20033;-85
2023/12/10 05:49:53;;;;;;;1022.10;912.25;;;8.10;99.90;;;;;;5077217;28;20043;-84
2023/12/10 05:52:19;;;;;;;994.15;888.28;;;8.10;99.90;;;;;;5077892;28;20098;-85
2023/12/10 05:54:45;;;;;;;1006.45;901.03;;;8.10;99.90;;;;;;5061121;28;20036;-85
2023/12/10 05:57:13;;;;;;;1012.55;904.25;;;8.00;99.90;;;;;;5076831;28;20074;-85
2023/12/10 05:59:39;;;;;;;996.35;893.95;;;8.10;99.90;;;;;;5077063;28;20099;-85
2023/12/10 06:02:05;;;;;;;961.78;871.60;;;8.10;99.90;;;;;;5079844;28;20032;-85
2023/12/10 06:04:30;;;;;;;997.63;894.45;;;8.10;99.90;;;;;;5080118;28;20044;-85
2023/12/10 06:06:57;;;;;;;1136.43;953.75;;;8.10;99.90;;;;;;5063372;28;20029;-84
2023/12/10 06:09:23;;;;;;;996.92;893.22;;;8.10;99.90;;;;;;5055104;28;20036;-84
2023/12/10 06:11:48;;;;;;;945.00;851.85;;;8.10;99.90;;;;;;5062792;28;20040;-84
2023/12/10 06:14:14;;;;;;;1284.50;983.72;;;8.00;99.90;;;;;;5059127;28;20028;-85
2023/12/10 06:16:40;;;;;;;1027.35;901.95;;;8.00;99.90;;;;;;5077192;28;20424;-84
2023/12/10 06:19:06;;;;;;;921.85;828.88;;;8.00;99.90;;;;;;5078642;28;20052;-85
2023/12/10 06:21:33;;;;;;;1029.97;913.92;;;7.10;99.90;;;;;;5082006;28;20081;-86
2023/12/10 06:23:59;;;;;;;961.40;862.33;;;8.20;99.90;;;;;;5064892;28;20051;-85
2023/12/10 06:26:25;;;;;;;961.00;862.03;;;7.90;99.90;;;;;;5081640;28;20037;-86
2023/12/10 06:28:51;;;;;;;905.22;818.92;;;8.00;99.90;;;;;;5059162;28;20033;-85
2023/12/10 06:31:16;;;;;;;1043.38;912.15;;;7.90;99.90;;;;;;5062850;28;20044;-84
2023/12/10 06:33:44;;;;;;;934.38;841.42;;;7.90;99.90;;;;;;5067539;28;20040;-86
2023/12/10 06:36:13;;;;;;;1247.82;948.70;;;7.60;99.90;;;;;;5062281;28;20032;-85
2023/12/10 06:38:39;;;;;;;959.70;860.38;;;8.70;99.90;;;;;;5060245;28;20059;-85
2023/12/10 06:41:06;;;;;;;1012.70;903.90;;;8.10;99.90;;;;;;5063635;28;20036;-84
2023/12/10 06:43:32;;;;;;;948.10;851.35;;;8.10;99.90;;;;;;5080198;28;20040;-84
2023/12/10 06:45:58;;;;;;;1080.50;929.13;;;8.10;99.90;;;;;;5063137;28;20534;-84
2023/12/10 06:48:27;;;;;;;967.42;868.60;;;8.10;99.90;;;;;;5078845;28;20052;-84
2023/12/10 06:50:53;;;;;;;1024.15;901.22;;;8.10;99.90;;;;;;5043466;28;20393;-85
2023/12/10 06:53:19;;;;;;;987.60;883.50;;;7.40;99.90;;;;;;5058011;28;20036;-84
2023/12/10 06:55:45;;;;;;;891.67;808.38;;;8.20;99.90;;;;;;5058975;28;20029;-84
2023/12/10 06:58:11;;;;;;;1004.85;900.05;;;8.20;99.90;;;;;;5060981;28;20615;-84
2023/12/10 07:00:36;;;;;;;1049.78;913.67;;;8.10;99.90;;;;;;5077170;28;20036;-85
2023/12/10 07:03:02;;;;;;;956.28;853.45;;;8.10;99.90;;;;;;5052112;28;20049;-84
2023/12/10 07:05:28;;;;;;;1052.30;893.47;;;8.10;99.90;;;;;;5069055;28;20527;-85
2023/12/10 07:07:54;;;;;;;1051.90;896.33;;;8.10;99.90;;;;;;5099928;28;20041;-84
2023/12/10 07:10:20;;;;;;;972.50;869.58;;;8.10;99.90;;;;;;5084481;28;20061;-85
2023/12/10 07:12:45;;;;;;;936.50;841.92;;;8.10;99.90;;;;;;5082893;28;20053;-85
2023/12/10 07:15:11;;;;;;;955.47;855.67;;;7.40;99.90;;;;;;5071482;28;20052;-85
2023/12/10 07:17:37;;;;;;;948.67;854.75;;;8.00;99.90;;;;;;5071529;28;20076;-86
2023/12/10 07:20:03;;;;;;;975.83;874.25;;;8.10;99.90;;;;;;5063106;28;20048;-86
2023/12/10 07:22:29;;;;;;;1017.63;898.33;;;8.10;99.90;;;;;;5056940;28;20037;-85
2023/12/10 07:24:55;;;;;;;990.58;881.95;;;8.10;99.90;;;;;;5054997;28;20436;-86
2023/12/10 07:27:21;;;;;;;988.38;879.72;;;8.10;99.90;;;;;;5062979;28;20094;-85
2023/12/10 07:29:48;;;;;;;1013.42;903.17;;;8.10;99.90;;;;;;5069222;28;20041;-86
2023/12/10 07:32:13;;;;;;;981.10;878.25;;;8.10;99.90;;;;;;5059881;28;20037;-86
2023/12/10 07:34:39;;;;;;;1025.68;910.63;;;8.10;99.90;;;;;;5062559;28;20029;-86
2023/12/10 07:37:05;;;;;;;1114.53;938.88;;;8.10;99.90;;;;;;5061605;28;20028;-87
2023/12/10 07:39:31;;;;;;;975.83;875.40;;;8.00;99.90;;;;;;5059231;28;20037;-86
2023/12/10 07:41:56;;;;;;;1006.85;901.42;;;8.10;99.90;;;;;;5044433;28;20485;-86
2023/12/10 07:44:23;;;;;;;994.47;890.15;;;8.10;99.90;;;;;;5075648;28;20040;-86
2023/12/10 07:46:49;;;;;;;1089.20;947.83;;;8.10;99.90;;;;;;5043513;28;20037;-86
2023/12/10 07:49:14;;;;;;;1047.10;929.97;;;8.10;99.90;;;;;;5083084;28;20037;-86
2023/12/10 07:51:40;;;;;;;1087.15;950.47;;;8.10;99.90;;;;;;5067264;28;20045;-86
2023/12/10 07:54:06;;;;;;;1098.85;944.75;;;8.10;99.90;;;;;;5067106;28;20067;-86
2023/12/10 07:56:32;;;;;;;1065.95;938.50;;;8.10;99.90;;;;;;5054080;28;20041;-86
2023/12/10 07:58:57;;;;;;;1024.45;907.47;;;8.10;99.90;;;;;;5077041;28;20033;-87
2023/12/10 08:01:23;;;;;;;984.58;884.38;;;8.20;99.90;;;;;;5054259;28;20071;-86
2023/12/10 08:03:49;;;;;;;1021.53;911.50;;;8.20;99.90;;;;;;5054791;28;20037;-86
2023/12/10 08:06:15;;;;;;;1073.43;943.47;;;7.70;99.90;;;;;;5073288;28;20572;-86
2023/12/10 08:08:40;;;;;;;1105.28;948.95;;;7.90;99.90;;;;;;5050393;28;20048;-86
2023/12/10 08:11:06;;;;;;;1054.05;928.45;;;8.20;99.90;;;;;;5074848;28;20076;-86
2023/12/10 08:13:32;;;;;;;1103.65;924.67;;;8.20;99.90;;;;;;5086016;28;20044;-86
2023/12/10 08:15:58;;;;;;;1155.30;971.38;;;8.20;99.90;;;;;;5054228;28;20064;-86
2023/12/10 08:18:24;;;;;;;1010.13;902.03;;;8.20;99.90;;;;;;5057273;28;20044;-86
2023/12/10 08:20:50;;;;;;;1035.40;905.28;;;8.20;99.90;;;;;;5062746;28;20047;-85
2023/12/10 08:23:16;;;;;;;1022.33;908.20;;;8.20;99.90;;;;;;5038086;28;20066;-86
2023/12/10 08:25:41;;;;;;;1024.82;910.40;;;7.60;99.90;;;;;;5061608;28;20044;-86
2023/12/10 08:28:07;;;;;;;1034.50;916.47;;;8.20;99.90;;;;;;5062546;28;20040;-86
2023/12/10 08:30:38;;;;;;;1004.85;900.55;;;8.20;99.90;;;;;;5080793;28;20040;-86
2023/12/10 08:33:04;;;;;;;1041.45;905.63;;;8.20;99.90;;;;;;5079434;28;20037;-86
2023/12/10 08:35:30;;;;;;;1087.07;921.85;;;8.20;99.90;;;;;;5083851;28;20077;-87
2023/12/10 08:37:57;;;;;;;961.90;864.60;;;8.20;99.90;;;;;;5048763;28;20055;-86
2023/12/10 08:40:23;;;;;;;1233.25;956.35;;;8.20;99.90;;;;;;5062837;28;20036;-86
2023/12/10 08:42:49;;;;;;;914.55;824.92;;;8.20;99.90;;;;;;5075330;28;20029;-87
2023/12/10 08:45:15;;;;;;;1273.28;950.53;;;8.20;99.90;;;;;;5074849;28;20500;-86
2023/12/10 08:47:41;;;;;;;1108.13;943.33;;;8.20;99.90;;;;;;5079060;28;20040;-86
2023/12/10 08:50:09;;;;;;;1171.65;956.00;;;8.20;99.90;;;;;;5058277;28;20041;-86
2023/12/10 08:52:34;;;;;;;1003.55;894.20;;;8.20;99.90;;;;;;5062070;28;20040;-86
2023/12/10 08:55:01;;;;;;;1015.83;901.53;;;8.20;99.90;;;;;;5058918;28;20068;-86
2023/12/10 08:57:27;;;;;;;994.70;882.25;;;8.20;99.90;;;;;;5061415;28;20043;-85
2023/12/10 08:59:55;;;;;;;1002.10;888.85;;;8.20;99.90;;;;;;5082620;28;20517;-85
2023/12/10 09:02:21;;;;;;;1317.38;988.95;;;8.20;99.90;;;;;;5061923;28;20033;-86
2023/12/10 09:04:48;;;;;;;999.53;881.20;;;8.20;99.90;;;;;;5079157;28;20078;-86
2023/12/10 09:07:14;;;;;;;1019.65;890.58;;;8.30;99.90;;;;;;5064561;28;20100;-86
2023/12/10 09:09:40;;;;;;;1028.60;892.95;;;8.20;99.90;;;;;;5073407;28;20044;-86
2023/12/10 09:12:06;;;;;;;1015.28;904.03;;;8.20;99.90;;;;;;5062089;28;20033;-86
2023/12/10 09:14:31;;;;;;;973.28;868.40;;;8.20;99.90;;;;;;5088826;28;20040;-86
2023/12/10 09:16:58;;;;;;;915.22;822.83;;;8.20;99.90;;;;;;5061724;28;20129;-86
2023/12/10 09:19:29;;;;;;;995.10;887.05;;;8.20;99.90;;;;;;5067385;28;20067;-85
2023/12/10 09:21:55;;;;;;;952.17;853.03;;;8.20;99.90;;;;;;5064740;28;20037;-85
2023/12/10 09:24:22;;;;;;;1121.82;907.47;;;7.50;99.90;;;;;;5060855;28;20098;-86
2023/12/10 09:26:48;;;;;;;981.20;876.30;;;8.20;99.90;;;;;;5065636;28;20096;-86
2023/12/10 09:29:14;;;;;;;932.30;839.80;;;8.20;99.90;;;;;;5063171;28;20041;-85
2023/12/10 09:31:40;;;;;;;990.42;882.92;;;8.20;99.90;;;;;;5070017;28;20052;-87
2023/12/10 09:34:06;;;;;;;995.75;874.05;;;8.20;99.90;;;;;;5061516;28;20040;-86
2023/12/10 09:36:33;;;;;;;1216.13;945.50;;;8.00;99.90;;;;;;5062075;28;20558;-86
2023/12/10 09:38:59;;;;;;;929.85;839.30;;;7.70;99.90;;;;;;5050586;28;20037;-86
2023/12/10 09:41:25;;;;;;;1002.85;892.92;;;8.30;99.90;;;;;;5055708;28;20049;-86
2023/12/10 09:43:50;;;;;;;953.95;855.30;;;8.30;99.90;;;;;;5060566;28;20033;-86
2023/12/10 09:46:16;;;;;;;963.80;860.00;;;8.30;99.90;;;;;;5063180;28;20033;-86
2023/12/10 09:48:45;;;;;;;984.65;878.33;;;8.30;99.90;;;;;;5070664;28;20041;-86
2023/12/10 09:51:10;;;;;;;1234.47;971.55;;;8.30;99.90;;;;;;5063625;28;20037;-86
2023/12/10 09:53:36;;;;;;;961.70;860.90;;;8.30;99.90;;;;;;5062658;28;20043;-86
2023/12/10 09:56:02;;;;;;;978.13;874.88;;;8.30;99.90;;;;;;5068199;28;20101;-85
2023/12/10 09:58:28;;;;;;;1025.55;893.40;;;8.60;99.90;;;;;;5082227;28;20040;-85
2023/12/10 10:00:54;;;;;;;1003.85;886.53;;;8.30;99.90;;;;;;5062894;28;20037;-86
2023/12/10 10:03:20;;;;;;;1112.38;924.90;;;8.30;99.90;;;;;;5065110;28;20105;-86
2023/12/10 10:05:46;;;;;;;958.65;859.65;;;8.30;99.90;;;;;;5080422;28;20043;-87
2023/12/10 10:08:12;;;;;;;983.10;874.67;;;8.30;99.90;;;;;;5058795;28;20065;-87
2023/12/10 10:10:38;;;;;;;1093.85;931.47;;;8.30;99.90;;;;;;5078155;28;20037;-87
2023/12/10 10:13:07;;;;;;;991.97;878.92;;;8.30;99.90;;;;;;5044357;28;20493;-87
2023/12/10 10:15:33;;;;;;;970.65;867.28;;;8.30;99.90;;;;;;5067994;28;20044;-87
2023/12/10 10:17:59;;;;;;;1126.63;931.35;;;8.20;99.90;;;;;;5058049;28;20059;-87
2023/12/10 10:20:26;;;;;;;1161.28;937.17;;;8.30;99.90;;;;;;5083210;28;20080;-87
2023/12/10 10:22:52;;;;;;;976.97;873.60;;;8.30;99.90;;;;;;5058659;28;20096;-87
2023/12/10 10:25:19;;;;;;;1185.65;938.22;;;7.80;99.90;;;;;;5057560;28;20078;-86
2023/12/10 10:27:45;;;;;;;926.83;834.17;;;8.30;99.90;;;;;;5080893;28;20037;-86
2023/12/10 10:30:11;;;;;;;1049.18;918.33;;;8.30;99.90;;;;;;5064084;28;20112;-86
2023/12/10 10:32:39;;;;;;;1001.20;886.63;;;8.30;99.90;;;;;;5076871;28;20078;-88
2023/12/10 10:35:06;;;;;;;1184.15;944.53;;;8.30;99.90;;;;;;5061673;28;20036;-89
2023/12/10 10:37:33;;;;;;;981.28;872.40;;;8.30;99.90;;;;;;5059150;28;20064;-88
2023/12/10 10:39:59;;;;;;;982.65;872.25;;;8.30;99.90;;;;;;5048814;28;20063;-87
2023/12/10 10:42:25;;;;;;;1013.08;894.20;;;8.30;99.90;;;;;;5057443;28;20032;-87
2023/12/10 10:44:50;;;;;;;1113.65;919.90;;;8.30;99.90;;;;;;5066331;28;20028;-89
2023/12/10 10:47:18;;;;;;;1028.78;904.17;;;8.30;99.90;;;;;;5057063;28;20033;-88
2023/12/10 10:49:51;;;;;;;1069.93;914.05;;;8.30;99.90;;;;;;5070048;28;20033;-88
2023/12/10 10:52:22;;;;;;;1288.65;984.55;;;8.30;99.90;;;;;;5060127;28;20100;-88
2023/12/10 10:54:49;;;;;;;877.92;794.53;;;8.30;99.90;;;;;;5084728;28;20066;-88
2023/12/10 10:57:31;;;;;;;960.97;858.58;;;8.30;99.90;;;;;;5055254;28;20041;-88
2023/12/10 10:59:57;;;;;;;1116.50;934.28;;;8.30;99.90;;;;;;5054492;28;20033;-87
2023/12/10 11:02:23;;;;;;;875.38;790.90;;;8.30;99.90;;;;;;5076201;28;20101;-86
2023/12/10 11:04:52;;;;;;;1100.50;929.88;;;8.30;99.90;;;;;;5060191;28;20029;-87
2023/12/10 11:07:20;;;;;;;962.40;861.25;;;8.30;99.90;;;;;;5067665;28;20104;-87
2023/12/10 11:10:02;;;;;;;985.65;870.88;;;8.10;99.90;;;;;;5065657;28;20029;-87
2023/12/10 11:12:43;;;;;;;946.33;846.42;;;8.30;99.90;;;;;;5066848;28;20105;-87
2023/12/10 11:15:18;;;;;;;1271.13;932.45;;;8.30;99.90;;;;;;5066907;28;20104;-88
2023/12/10 11:18:02;;;;;;;902.78;810.75;;;8.30;99.90;;;;;;5070934;28;20057;-88
2023/12/10 11:20:43;;;;;;;990.50;857.50;;;8.30;99.90;;;;;;5072832;28;20104;-87
2023/12/10 11:23:16;;;;;;;1067.97;900.10;;;8.40;99.90;;;;;;5053802;28;20120;-86
2023/12/10 11:25:44;;;;;;;964.35;861.60;;;8.40;99.90;;;;;;5071363;28;20048;-87
2023/12/10 11:28:11;;;;;;;975.95;870.83;;;8.40;99.90;;;;;;5058735;28;20040;-87
2023/12/10 11:30:41;;;;;;;1130.60;898.25;;;8.40;99.90;;;;;;5073191;28;20048;-87
2023/12/10 11:33:09;;;;;;;1020.58;886.67;;;8.40;99.90;;;;;;5055745;28;20037;-88
2023/12/10 11:35:35;;;;;;;1138.85;919.67;;;8.40;99.90;;;;;;5052343;28;20049;-87
2023/12/10 11:38:02;;;;;;;1100.35;936.20;;;8.40;99.90;;;;;;5051667;28;20061;-86
2023/12/10 11:40:28;;;;;;;1009.65;894.67;;;8.20;99.90;;;;;;5083919;28;20052;-86
2023/12/10 11:43:04;;;;;;;979.45;873.72;;;8.50;99.90;;;;;;5061008;28;20599;-86
2023/12/10 11:45:30;;;;;;;1017.75;863.58;;;8.50;99.90;;;;;;5051040;28;20337;-87
2023/12/10 11:47:56;;;;;;;1130.45;920.80;;;8.50;99.90;;;;;;5077531;28;20041;-88
2023/12/10 11:50:25;;;;;;;1231.10;940.63;;;8.50;99.90;;;;;;5075682;28;20578;-88
2023/12/10 11:52:51;;;;;;;986.95;882.28;;;8.50;99.90;;;;;;5074035;28;20040;-87
2023/12/10 11:55:17;;;;;;;1084.57;917.72;;;8.50;99.90;;;;;;5044598;28;20078;-87
2023/12/10 11:57:44;;;;;;;1078.53;913.25;;;8.60;99.90;;;;;;5070586;28;20052;-87
2023/12/10 12:00:11;;;;;;;1275.40;978.20;;;8.60;99.90;;;;;;5074638;28;20196;-83
2023/12/10 12:02:44;;;;;;;1188.40;967.10;;;8.60;99.90;;;;;;5054413;28;20047;-87
2023/12/10 12:05:12;;;;;;;1081.00;912.75;;;9.20;99.90;;;;;;5068129;28;20037;-87
2023/12/10 12:07:41;;;;;;;969.60;867.35;;;8.60;99.90;;;;;;5067840;28;20044;-86
2023/12/10 12:10:07;;;;;;;985.22;883.03;;;8.60;99.90;;;;;;5057688;28;20074;-86